Main page
METAR-TAF:

METAR-TAF

Airports :

Ouagadougou Airport

Ouagadougou, Burkina Faso

latitude: 12-21N, longitude: 001-31W, elevation: 316 m

Current weather observation

The report was made 52 minutes ago, at 20:00 UTC
Wind 6 kt from the North
Temperature 35°C
Humidity 9%
Pressure 1008 hPa
Visibility 10 km or more
no clouds below 1500 m and no cumulonimbus

METAR: DFFD 212000Z 35006KT CAVOK 35/M03 Q1008 NOSIG

Time: 20:52 (20:52 UTC)

Forecast

The report was made 3 hours and 52 minutes ago, at 17:00 UTC
Forecast valid from 21 at 18 UTC to 22 at 24 UTC
Wind 8 kt from the North
Visibility 10 km or more
no clouds below 1500 m and no cumulonimbus
Temporary
from 22 at 06 UTC to 22 at 10 UTC
Visibility: 4000 m
haze

TAF: DFFD 211700Z 2118/2224 36008KT CAVOK TEMPO 2206/2210 4000 HZ

Weather observations and forecasts of more than 4000 airports (METAR and TAF reports).

The available stations are represented by yellow and red dots on the map.

Hover mouse over dot to see the name of the station.

Then click to see weather observations and forecasts.

To change the map : click on the green buttons with a black cross to zoom in, on the green button with a dash to zoom out, or on the green arrows for adjacent maps.


METAR-TAF: